sensor_id;sensor_type;location;lat;lon;timestamp;P1;durP1;ratioP1;P2;durP2;ratioP2
21036;SDS011;10677;50.942;4.028;2023-04-22T00:01:43;66.25;;;32.30;;
21036;SDS011;10677;50.942;4.028;2023-04-22T00:04:08;82.15;;;32.92;;
21036;SDS011;10677;50.942;4.028;2023-04-22T00:06:35;63.25;;;32.47;;
21036;SDS011;10677;50.942;4.028;2023-04-22T00:09:00;52.53;;;31.45;;
21036;SDS011;10677;50.942;4.028;2023-04-22T00:11:26;54.38;;;31.27;;
21036;SDS011;10677;50.942;4.028;2023-04-22T00:13:52;59.97;;;33.45;;
21036;SDS011;10677;50.942;4.028;2023-04-22T00:16:17;60.53;;;32.60;;
21036;SDS011;10677;50.942;4.028;2023-04-22T00:18:43;57.33;;;31.52;;
21036;SDS011;10677;50.942;4.028;2023-04-22T00:21:09;54.08;;;31.13;;
21036;SDS011;10677;50.942;4.028;2023-04-22T00:23:35;57.88;;;33.67;;
21036;SDS011;10677;50.942;4.028;2023-04-22T00:26:01;54.88;;;31.20;;
21036;SDS011;10677;50.942;4.028;2023-04-22T00:28:26;49.17;;;31.15;;
21036;SDS011;10677;50.942;4.028;2023-04-22T00:30:52;49.05;;;30.75;;
21036;SDS011;10677;50.942;4.028;2023-04-22T00:33:18;48.55;;;29.95;;
21036;SDS011;10677;50.942;4.028;2023-04-22T00:35:44;45.85;;;28.02;;
21036;SDS011;10677;50.942;4.028;2023-04-22T00:38:10;48.67;;;29.45;;
21036;SDS011;10677;50.942;4.028;2023-04-22T00:40:36;44.22;;;28.73;;
21036;SDS011;10677;50.942;4.028;2023-04-22T00:43:02;46.35;;;28.15;;
21036;SDS011;10677;50.942;4.028;2023-04-22T00:45:27;44.60;;;28.08;;
21036;SDS011;10677;50.942;4.028;2023-04-22T00:47:55;44.38;;;27.05;;
21036;SDS011;10677;50.942;4.028;2023-04-22T00:50:21;45.40;;;28.88;;
21036;SDS011;10677;50.942;4.028;2023-04-22T00:52:47;47.53;;;29.30;;
21036;SDS011;10677;50.942;4.028;2023-04-22T00:55:12;43.17;;;27.88;;
21036;SDS011;10677;50.942;4.028;2023-04-22T00:57:39;44.47;;;28.05;;
21036;SDS011;10677;50.942;4.028;2023-04-22T01:00:05;39.35;;;25.77;;
21036;SDS011;10677;50.942;4.028;2023-04-22T01:02:33;44.83;;;27.92;;
21036;SDS011;10677;50.942;4.028;2023-04-22T01:05:01;43.78;;;27.48;;
21036;SDS011;10677;50.942;4.028;2023-04-22T01:07:28;44.80;;;28.08;;
21036;SDS011;10677;50.942;4.028;2023-04-22T01:09:53;43.22;;;28.33;;
21036;SDS011;10677;50.942;4.028;2023-04-22T01:12:19;49.35;;;30.42;;
21036;SDS011;10677;50.942;4.028;2023-04-22T01:14:45;50.08;;;29.05;;
21036;SDS011;10677;50.942;4.028;2023-04-22T01:17:10;46.97;;;29.10;;
21036;SDS011;10677;50.942;4.028;2023-04-22T01:19:37;50.08;;;29.13;;
21036;SDS011;10677;50.942;4.028;2023-04-22T01:22:04;50.13;;;30.83;;
21036;SDS011;10677;50.942;4.028;2023-04-22T01:24:32;48.58;;;30.50;;
21036;SDS011;10677;50.942;4.028;2023-04-22T01:26:58;48.30;;;30.35;;
21036;SDS011;10677;50.942;4.028;2023-04-22T01:29:24;50.33;;;31.05;;
21036;SDS011;10677;50.942;4.028;2023-04-22T01:31:50;51.15;;;31.45;;
21036;SDS011;10677;50.942;4.028;2023-04-22T01:34:16;49.03;;;29.60;;
21036;SDS011;10677;50.942;4.028;2023-04-22T01:36:42;51.92;;;30.98;;
21036;SDS011;10677;50.942;4.028;2023-04-22T01:39:08;48.22;;;29.83;;
21036;SDS011;10677;50.942;4.028;2023-04-22T01:41:34;47.45;;;29.95;;
21036;SDS011;10677;50.942;4.028;2023-04-22T01:44:00;46.75;;;30.15;;
21036;SDS011;10677;50.942;4.028;2023-04-22T01:46:27;46.33;;;28.85;;
21036;SDS011;10677;50.942;4.028;2023-04-22T01:48:53;51.50;;;32.17;;
21036;SDS011;10677;50.942;4.028;2023-04-22T01:51:19;45.58;;;29.55;;
21036;SDS011;10677;50.942;4.028;2023-04-22T01:53:45;46.05;;;29.40;;
21036;SDS011;10677;50.942;4.028;2023-04-22T01:56:12;47.08;;;29.20;;
21036;SDS011;10677;50.942;4.028;2023-04-22T01:58:38;48.30;;;29.13;;
21036;SDS011;10677;50.942;4.028;2023-04-22T02:01:04;44.78;;;27.83;;
21036;SDS011;10677;50.942;4.028;2023-04-22T02:03:30;48.50;;;30.60;;
21036;SDS011;10677;50.942;4.028;2023-04-22T02:05:56;46.20;;;29.88;;
21036;SDS011;10677;50.942;4.028;2023-04-22T02:08:22;45.20;;;27.80;;
21036;SDS011;10677;50.942;4.028;2023-04-22T02:10:47;48.30;;;29.95;;
21036;SDS011;10677;50.942;4.028;2023-04-22T02:13:13;50.92;;;30.02;;
21036;SDS011;10677;50.942;4.028;2023-04-22T02:15:39;45.97;;;29.48;;
21036;SDS011;10677;50.942;4.028;2023-04-22T02:18:05;47.00;;;29.70;;
21036;SDS011;10677;50.942;4.028;2023-04-22T02:20:31;47.63;;;29.35;;
21036;SDS011;10677;50.942;4.028;2023-04-22T02:22:57;49.72;;;29.48;;
21036;SDS011;10677;50.942;4.028;2023-04-22T02:25:23;47.75;;;30.27;;
21036;SDS011;10677;50.942;4.028;2023-04-22T02:27:48;47.83;;;28.63;;
21036;SDS011;10677;50.942;4.028;2023-04-22T02:30:14;49.42;;;30.48;;
21036;SDS011;10677;50.942;4.028;2023-04-22T02:32:40;46.00;;;29.60;;
21036;SDS011;10677;50.942;4.028;2023-04-22T02:35:05;49.40;;;29.92;;
21036;SDS011;10677;50.942;4.028;2023-04-22T02:37:31;51.58;;;31.55;;
21036;SDS011;10677;50.942;4.028;2023-04-22T02:39:57;55.05;;;32.67;;
21036;SDS011;10677;50.942;4.028;2023-04-22T02:42:23;50.45;;;31.23;;
21036;SDS011;10677;50.942;4.028;2023-04-22T02:44:48;48.70;;;30.95;;
21036;SDS011;10677;50.942;4.028;2023-04-22T02:47:14;48.08;;;29.80;;
21036;SDS011;10677;50.942;4.028;2023-04-22T02:49:40;45.15;;;29.17;;
21036;SDS011;10677;50.942;4.028;2023-04-22T02:52:06;45.35;;;30.10;;
21036;SDS011;10677;50.942;4.028;2023-04-22T02:54:31;52.28;;;31.17;;
21036;SDS011;10677;50.942;4.028;2023-04-22T02:56:57;46.72;;;29.58;;
21036;SDS011;10677;50.942;4.028;2023-04-22T02:59:23;47.65;;;30.45;;
21036;SDS011;10677;50.942;4.028;2023-04-22T03:01:48;48.83;;;31.98;;
21036;SDS011;10677;50.942;4.028;2023-04-22T03:04:14;48.30;;;31.60;;
21036;SDS011;10677;50.942;4.028;2023-04-22T03:06:41;49.88;;;30.60;;
21036;SDS011;10677;50.942;4.028;2023-04-22T03:09:06;47.17;;;30.92;;
21036;SDS011;10677;50.942;4.028;2023-04-22T03:11:32;51.25;;;31.15;;
21036;SDS011;10677;50.942;4.028;2023-04-22T03:13:58;49.33;;;30.88;;
21036;SDS011;10677;50.942;4.028;2023-04-22T03:16:23;49.72;;;30.52;;
21036;SDS011;10677;50.942;4.028;2023-04-22T03:18:49;47.10;;;29.42;;
21036;SDS011;10677;50.942;4.028;2023-04-22T03:21:15;40.72;;;27.42;;
21036;SDS011;10677;50.942;4.028;2023-04-22T03:23:41;44.10;;;27.90;;
21036;SDS011;10677;50.942;4.028;2023-04-22T03:26:06;42.92;;;28.30;;
21036;SDS011;10677;50.942;4.028;2023-04-22T03:28:32;42.30;;;27.63;;
21036;SDS011;10677;50.942;4.028;2023-04-22T03:30:57;43.75;;;28.45;;
21036;SDS011;10677;50.942;4.028;2023-04-22T03:33:23;44.53;;;29.23;;
21036;SDS011;10677;50.942;4.028;2023-04-22T03:35:49;44.58;;;27.75;;
21036;SDS011;10677;50.942;4.028;2023-04-22T03:38:15;43.53;;;27.95;;
21036;SDS011;10677;50.942;4.028;2023-04-22T03:40:41;44.72;;;27.70;;
21036;SDS011;10677;50.942;4.028;2023-04-22T03:43:07;46.17;;;27.45;;
21036;SDS011;10677;50.942;4.028;2023-04-22T03:45:33;42.15;;;27.15;;
21036;SDS011;10677;50.942;4.028;2023-04-22T03:47:59;42.53;;;27.92;;
21036;SDS011;10677;50.942;4.028;2023-04-22T03:50:24;41.00;;;26.23;;
21036;SDS011;10677;50.942;4.028;2023-04-22T03:52:50;39.67;;;26.30;;
21036;SDS011;10677;50.942;4.028;2023-04-22T03:55:15;39.35;;;26.42;;
21036;SDS011;10677;50.942;4.028;2023-04-22T03:57:41;35.67;;;24.25;;
21036;SDS011;10677;50.942;4.028;2023-04-22T04:00:07;35.78;;;24.67;;
21036;SDS011;10677;50.942;4.028;2023-04-22T04:02:33;40.22;;;26.15;;
21036;SDS011;10677;50.942;4.028;2023-04-22T04:04:58;36.38;;;24.95;;
21036;SDS011;10677;50.942;4.028;2023-04-22T04:07:25;36.67;;;25.05;;
21036;SDS011;10677;50.942;4.028;2023-04-22T04:09:51;40.85;;;26.52;;
21036;SDS011;10677;50.942;4.028;2023-04-22T04:12:17;40.80;;;26.70;;
21036;SDS011;10677;50.942;4.028;2023-04-22T04:14:43;43.00;;;27.58;;
21036;SDS011;10677;50.942;4.028;2023-04-22T04:17:08;46.30;;;29.40;;
21036;SDS011;10677;50.942;4.028;2023-04-22T04:19:37;46.33;;;29.15;;
21036;SDS011;10677;50.942;4.028;2023-04-22T04:22:03;51.35;;;31.50;;
21036;SDS011;10677;50.942;4.028;2023-04-22T04:24:28;47.67;;;29.67;;
21036;SDS011;10677;50.942;4.028;2023-04-22T04:26:54;49.05;;;30.90;;
21036;SDS011;10677;50.942;4.028;2023-04-22T04:29:22;50.08;;;30.67;;
21036;SDS011;10677;50.942;4.028;2023-04-22T04:31:48;49.47;;;31.48;;
21036;SDS011;10677;50.942;4.028;2023-04-22T04:34:13;51.30;;;31.30;;
21036;SDS011;10677;50.942;4.028;2023-04-22T04:36:39;49.42;;;30.67;;
21036;SDS011;10677;50.942;4.028;2023-04-22T04:39:05;51.45;;;32.25;;
21036;SDS011;10677;50.942;4.028;2023-04-22T04:41:33;51.25;;;30.73;;
21036;SDS011;10677;50.942;4.028;2023-04-22T04:43:59;49.58;;;31.48;;
21036;SDS011;10677;50.942;4.028;2023-04-22T04:46:25;46.63;;;30.27;;
21036;SDS011;10677;50.942;4.028;2023-04-22T04:48:53;54.17;;;34.38;;
21036;SDS011;10677;50.942;4.028;2023-04-22T04:51:19;53.30;;;30.45;;
21036;SDS011;10677;50.942;4.028;2023-04-22T04:53:45;56.90;;;33.70;;
21036;SDS011;10677;50.942;4.028;2023-04-22T04:56:10;53.70;;;33.30;;
21036;SDS011;10677;50.942;4.028;2023-04-22T04:58:36;50.67;;;31.85;;
21036;SDS011;10677;50.942;4.028;2023-04-22T05:01:02;53.35;;;31.15;;
21036;SDS011;10677;50.942;4.028;2023-04-22T05:03:28;54.67;;;31.65;;
21036;SDS011;10677;50.942;4.028;2023-04-22T05:05:53;52.70;;;32.00;;
21036;SDS011;10677;50.942;4.028;2023-04-22T05:08:20;51.03;;;31.35;;
21036;SDS011;10677;50.942;4.028;2023-04-22T05:10:45;49.53;;;30.73;;
21036;SDS011;10677;50.942;4.028;2023-04-22T05:13:11;48.72;;;30.17;;
21036;SDS011;10677;50.942;4.028;2023-04-22T05:15:37;48.35;;;31.20;;
21036;SDS011;10677;50.942;4.028;2023-04-22T05:18:03;55.15;;;31.42;;
21036;SDS011;10677;50.942;4.028;2023-04-22T05:20:29;51.83;;;32.35;;
21036;SDS011;10677;50.942;4.028;2023-04-22T05:22:55;51.25;;;32.45;;
21036;SDS011;10677;50.942;4.028;2023-04-22T05:25:20;52.08;;;32.22;;
21036;SDS011;10677;50.942;4.028;2023-04-22T05:27:46;50.22;;;30.85;;
21036;SDS011;10677;50.942;4.028;2023-04-22T05:30:12;50.33;;;30.30;;
21036;SDS011;10677;50.942;4.028;2023-04-22T05:32:37;45.05;;;29.33;;
21036;SDS011;10677;50.942;4.028;2023-04-22T05:35:03;48.30;;;29.60;;
21036;SDS011;10677;50.942;4.028;2023-04-22T05:37:29;50.78;;;29.77;;
21036;SDS011;10677;50.942;4.028;2023-04-22T05:39:55;44.35;;;28.95;;
21036;SDS011;10677;50.942;4.028;2023-04-22T05:42:21;39.20;;;26.35;;
21036;SDS011;10677;50.942;4.028;2023-04-22T05:44:46;40.25;;;26.52;;
21036;SDS011;10677;50.942;4.028;2023-04-22T05:47:12;37.03;;;25.55;;
21036;SDS011;10677;50.942;4.028;2023-04-22T05:49:38;41.45;;;26.88;;
21036;SDS011;10677;50.942;4.028;2023-04-22T05:52:03;42.88;;;28.20;;
21036;SDS011;10677;50.942;4.028;2023-04-22T05:54:29;42.92;;;28.00;;
21036;SDS011;10677;50.942;4.028;2023-04-22T05:56:55;46.15;;;29.92;;
21036;SDS011;10677;50.942;4.028;2023-04-22T05:59:20;46.75;;;30.27;;
21036;SDS011;10677;50.942;4.028;2023-04-22T06:01:46;46.35;;;29.33;;
21036;SDS011;10677;50.942;4.028;2023-04-22T06:04:12;45.15;;;29.55;;
21036;SDS011;10677;50.942;4.028;2023-04-22T06:06:37;45.58;;;29.38;;
21036;SDS011;10677;50.942;4.028;2023-04-22T06:09:03;43.92;;;29.00;;
21036;SDS011;10677;50.942;4.028;2023-04-22T06:11:29;43.90;;;27.92;;
21036;SDS011;10677;50.942;4.028;2023-04-22T06:13:56;44.95;;;30.25;;
21036;SDS011;10677;50.942;4.028;2023-04-22T06:16:21;44.92;;;29.00;;
21036;SDS011;10677;50.942;4.028;2023-04-22T06:18:47;43.60;;;28.73;;
21036;SDS011;10677;50.942;4.028;2023-04-22T06:21:13;47.15;;;28.40;;
21036;SDS011;10677;50.942;4.028;2023-04-22T06:23:39;41.47;;;28.15;;
21036;SDS011;10677;50.942;4.028;2023-04-22T06:26:04;42.95;;;28.05;;
21036;SDS011;10677;50.942;4.028;2023-04-22T06:28:30;43.08;;;27.58;;
21036;SDS011;10677;50.942;4.028;2023-04-22T06:30:56;41.00;;;28.15;;
21036;SDS011;10677;50.942;4.028;2023-04-22T06:33:21;46.78;;;30.02;;
21036;SDS011;10677;50.942;4.028;2023-04-22T06:35:47;48.17;;;30.73;;
21036;SDS011;10677;50.942;4.028;2023-04-22T06:38:13;46.53;;;30.48;;
21036;SDS011;10677;50.942;4.028;2023-04-22T06:40:38;50.25;;;31.92;;
21036;SDS011;10677;50.942;4.028;2023-04-22T06:43:04;44.95;;;29.80;;
21036;SDS011;10677;50.942;4.028;2023-04-22T06:45:30;51.47;;;31.77;;
21036;SDS011;10677;50.942;4.028;2023-04-22T06:47:55;47.13;;;30.30;;
21036;SDS011;10677;50.942;4.028;2023-04-22T06:50:21;48.50;;;31.90;;
21036;SDS011;10677;50.942;4.028;2023-04-22T06:52:47;47.40;;;31.15;;
21036;SDS011;10677;50.942;4.028;2023-04-22T06:55:12;48.90;;;30.80;;
21036;SDS011;10677;50.942;4.028;2023-04-22T06:57:38;42.13;;;28.60;;
21036;SDS011;10677;50.942;4.028;2023-04-22T07:00:05;48.13;;;30.17;;
21036;SDS011;10677;50.942;4.028;2023-04-22T07:02:33;44.92;;;29.52;;
21036;SDS011;10677;50.942;4.028;2023-04-22T07:04:59;40.28;;;28.55;;
21036;SDS011;10677;50.942;4.028;2023-04-22T07:07:25;46.30;;;29.10;;
21036;SDS011;10677;50.942;4.028;2023-04-22T07:09:51;43.70;;;30.80;;
21036;SDS011;10677;50.942;4.028;2023-04-22T07:12:16;45.50;;;30.05;;
21036;SDS011;10677;50.942;4.028;2023-04-22T07:14:42;44.50;;;31.50;;
21036;SDS011;10677;50.942;4.028;2023-04-22T07:17:09;47.40;;;31.55;;
21036;SDS011;10677;50.942;4.028;2023-04-22T07:19:35;45.70;;;31.00;;
21036;SDS011;10677;50.942;4.028;2023-04-22T07:22:01;49.67;;;31.40;;
21036;SDS011;10677;50.942;4.028;2023-04-22T07:24:27;47.75;;;31.58;;
21036;SDS011;10677;50.942;4.028;2023-04-22T07:26:53;45.83;;;30.10;;
21036;SDS011;10677;50.942;4.028;2023-04-22T07:29:19;47.63;;;30.88;;
21036;SDS011;10677;50.942;4.028;2023-04-22T07:31:45;47.08;;;30.67;;
21036;SDS011;10677;50.942;4.028;2023-04-22T07:34:10;47.67;;;31.83;;
21036;SDS011;10677;50.942;4.028;2023-04-22T07:36:36;44.67;;;29.85;;
21036;SDS011;10677;50.942;4.028;2023-04-22T07:39:02;46.40;;;30.33;;
21036;SDS011;10677;50.942;4.028;2023-04-22T07:41:27;41.90;;;29.35;;
21036;SDS011;10677;50.942;4.028;2023-04-22T07:43:53;44.05;;;30.55;;
21036;SDS011;10677;50.942;4.028;2023-04-22T07:46:19;47.33;;;30.90;;
21036;SDS011;10677;50.942;4.028;2023-04-22T07:48:45;44.30;;;29.30;;
21036;SDS011;10677;50.942;4.028;2023-04-22T07:51:10;41.15;;;28.85;;
21036;SDS011;10677;50.942;4.028;2023-04-22T07:53:36;41.10;;;28.20;;
21036;SDS011;10677;50.942;4.028;2023-04-22T07:56:02;38.95;;;27.13;;
21036;SDS011;10677;50.942;4.028;2023-04-22T07:58:28;36.55;;;27.52;;
21036;SDS011;10677;50.942;4.028;2023-04-22T08:00:54;37.70;;;25.95;;
21036;SDS011;10677;50.942;4.028;2023-04-22T08:03:20;38.45;;;26.27;;
21036;SDS011;10677;50.942;4.028;2023-04-22T08:05:46;39.42;;;27.48;;
21036;SDS011;10677;50.942;4.028;2023-04-22T08:08:12;37.28;;;26.33;;
21036;SDS011;10677;50.942;4.028;2023-04-22T08:10:38;33.40;;;24.17;;
21036;SDS011;10677;50.942;4.028;2023-04-22T08:13:04;36.40;;;24.95;;
21036;SDS011;10677;50.942;4.028;2023-04-22T08:15:30;34.20;;;23.63;;
21036;SDS011;10677;50.942;4.028;2023-04-22T08:17:55;35.28;;;24.92;;
21036;SDS011;10677;50.942;4.028;2023-04-22T08:20:22;32.10;;;22.90;;
21036;SDS011;10677;50.942;4.028;2023-04-22T08:22:49;36.53;;;23.38;;
21036;SDS011;10677;50.942;4.028;2023-04-22T08:25:23;32.17;;;20.98;;
21036;SDS011;10677;50.942;4.028;2023-04-22T08:27:49;36.97;;;21.77;;
21036;SDS011;10677;50.942;4.028;2023-04-22T08:30:15;31.02;;;22.20;;
21036;SDS011;10677;50.942;4.028;2023-04-22T08:32:41;28.98;;;21.10;;
21036;SDS011;10677;50.942;4.028;2023-04-22T08:35:07;30.17;;;21.90;;
21036;SDS011;10677;50.942;4.028;2023-04-22T08:37:33;30.23;;;20.23;;
21036;SDS011;10677;50.942;4.028;2023-04-22T08:39:59;30.88;;;19.85;;
21036;SDS011;10677;50.942;4.028;2023-04-22T08:42:25;30.33;;;19.40;;
21036;SDS011;10677;50.942;4.028;2023-04-22T08:44:51;26.83;;;18.33;;
21036;SDS011;10677;50.942;4.028;2023-04-22T08:47:20;28.05;;;20.60;;
21036;SDS011;10677;50.942;4.028;2023-04-22T08:49:46;28.73;;;20.98;;
21036;SDS011;10677;50.942;4.028;2023-04-22T08:52:14;28.10;;;20.38;;
21036;SDS011;10677;50.942;4.028;2023-04-22T08:54:40;25.15;;;17.13;;
21036;SDS011;10677;50.942;4.028;2023-04-22T08:57:06;27.52;;;18.50;;
21036;SDS011;10677;50.942;4.028;2023-04-22T08:59:34;23.17;;;16.77;;
21036;SDS011;10677;50.942;4.028;2023-04-22T09:02:01;20.33;;;14.75;;
21036;SDS011;10677;50.942;4.028;2023-04-22T09:04:28;23.73;;;16.77;;
21036;SDS011;10677;50.942;4.028;2023-04-22T09:06:54;25.58;;;15.82;;
21036;SDS011;10677;50.942;4.028;2023-04-22T09:09:20;26.40;;;18.30;;
21036;SDS011;10677;50.942;4.028;2023-04-22T09:11:47;28.05;;;19.60;;
21036;SDS011;10677;50.942;4.028;2023-04-22T09:14:14;31.33;;;20.92;;
21036;SDS011;10677;50.942;4.028;2023-04-22T09:16:45;31.40;;;21.58;;
21036;SDS011;10677;50.942;4.028;2023-04-22T09:19:11;29.58;;;20.63;;
21036;SDS011;10677;50.942;4.028;2023-04-22T09:21:39;31.67;;;21.38;;
21036;SDS011;10677;50.942;4.028;2023-04-22T09:24:06;31.85;;;22.08;;
21036;SDS011;10677;50.942;4.028;2023-04-22T09:26:39;34.22;;;22.88;;
21036;SDS011;10677;50.942;4.028;2023-04-22T09:29:06;38.08;;;24.80;;
21036;SDS011;10677;50.942;4.028;2023-04-22T09:31:33;41.47;;;26.85;;
21036;SDS011;10677;50.942;4.028;2023-04-22T09:34:02;42.08;;;26.05;;
21036;SDS011;10677;50.942;4.028;2023-04-22T09:36:28;40.10;;;27.13;;
21036;SDS011;10677;50.942;4.028;2023-04-22T09:38:58;38.78;;;26.73;;
21036;SDS011;10677;50.942;4.028;2023-04-22T09:41:29;39.88;;;25.63;;
21036;SDS011;10677;50.942;4.028;2023-04-22T09:43:57;41.08;;;26.65;;
21036;SDS011;10677;50.942;4.028;2023-04-22T09:46:24;47.17;;;28.23;;
21036;SDS011;10677;50.942;4.028;2023-04-22T09:48:53;44.40;;;27.98;;
21036;SDS011;10677;50.942;4.028;2023-04-22T09:51:20;43.28;;;28.98;;
21036;SDS011;10677;50.942;4.028;2023-04-22T09:53:56;52.05;;;30.05;;
21036;SDS011;10677;50.942;4.028;2023-04-22T09:56:47;52.00;;;31.48;;
21036;SDS011;10677;50.942;4.028;2023-04-22T09:59:14;55.00;;;31.15;;
21036;SDS011;10677;50.942;4.028;2023-04-22T10:01:43;53.10;;;32.67;;
21036;SDS011;10677;50.942;4.028;2023-04-22T10:04:09;51.85;;;31.90;;
21036;SDS011;10677;50.942;4.028;2023-04-22T10:06:36;50.92;;;31.02;;
21036;SDS011;10677;50.942;4.028;2023-04-22T10:09:02;51.95;;;33.05;;
21036;SDS011;10677;50.942;4.028;2023-04-22T10:11:29;55.20;;;33.10;;
21036;SDS011;10677;50.942;4.028;2023-04-22T10:13:56;56.15;;;33.70;;
21036;SDS011;10677;50.942;4.028;2023-04-22T10:16:22;53.72;;;32.35;;
21036;SDS011;10677;50.942;4.028;2023-04-22T10:18:50;55.60;;;33.40;;
21036;SDS011;10677;50.942;4.028;2023-04-22T10:21:18;54.95;;;33.88;;
21036;SDS011;10677;50.942;4.028;2023-04-22T10:23:45;51.78;;;32.03;;
21036;SDS011;10677;50.942;4.028;2023-04-22T10:26:17;49.70;;;31.60;;
21036;SDS011;10677;50.942;4.028;2023-04-22T10:29:12;52.97;;;32.75;;
21036;SDS011;10677;50.942;4.028;2023-04-22T10:31:41;52.65;;;31.23;;
21036;SDS011;10677;50.942;4.028;2023-04-22T10:34:30;44.03;;;28.75;;
21036;SDS011;10677;50.942;4.028;2023-04-22T10:37:09;50.63;;;31.25;;
21036;SDS011;10677;50.942;4.028;2023-04-22T10:39:36;42.40;;;28.05;;
21036;SDS011;10677;50.942;4.028;2023-04-22T10:44:44;36.35;;;22.58;;
21036;SDS011;10677;50.942;4.028;2023-04-22T10:47:23;35.95;;;21.77;;
21036;SDS011;10677;50.942;4.028;2023-04-22T10:50:09;28.38;;;18.50;;
21036;SDS011;10677;50.942;4.028;2023-04-22T10:52:48;25.75;;;17.25;;
21036;SDS011;10677;50.942;4.028;2023-04-22T10:55:27;28.45;;;18.75;;
21036;SDS011;10677;50.942;4.028;2023-04-22T10:58:19;24.58;;;16.88;;
21036;SDS011;10677;50.942;4.028;2023-04-22T11:00:45;27.02;;;17.10;;
21036;SDS011;10677;50.942;4.028;2023-04-22T11:03:16;25.55;;;17.38;;
21036;SDS011;10677;50.942;4.028;2023-04-22T11:05:45;27.48;;;17.88;;
21036;SDS011;10677;50.942;4.028;2023-04-22T11:08:21;28.30;;;17.95;;
21036;SDS011;10677;50.942;4.028;2023-04-22T11:10:52;24.40;;;17.23;;
21036;SDS011;10677;50.942;4.028;2023-04-22T11:13:33;27.67;;;17.48;;
21036;SDS011;10677;50.942;4.028;2023-04-22T11:16:03;27.38;;;18.08;;
21036;SDS011;10677;50.942;4.028;2023-04-22T11:18:33;25.75;;;17.48;;
21036;SDS011;10677;50.942;4.028;2023-04-22T11:21:02;24.02;;;17.33;;
21036;SDS011;10677;50.942;4.028;2023-04-22T11:23:30;21.40;;;14.93;;
21036;SDS011;10677;50.942;4.028;2023-04-22T11:26:01;21.00;;;14.93;;
21036;SDS011;10677;50.942;4.028;2023-04-22T11:28:31;19.58;;;13.70;;
21036;SDS011;10677;50.942;4.028;2023-04-22T11:31:04;22.35;;;14.65;;
21036;SDS011;10677;50.942;4.028;2023-04-22T11:33:32;22.50;;;15.35;;
21036;SDS011;10677;50.942;4.028;2023-04-22T11:35:58;23.77;;;16.27;;
21036;SDS011;10677;50.942;4.028;2023-04-22T11:38:24;24.75;;;17.70;;
21036;SDS011;10677;50.942;4.028;2023-04-22T11:40:50;27.55;;;17.92;;
21036;SDS011;10677;50.942;4.028;2023-04-22T11:43:20;26.13;;;17.85;;
21036;SDS011;10677;50.942;4.028;2023-04-22T11:45:46;28.13;;;18.73;;
21036;SDS011;10677;50.942;4.028;2023-04-22T11:48:13;28.73;;;18.05;;
21036;SDS011;10677;50.942;4.028;2023-04-22T11:50:40;24.85;;;18.30;;
21036;SDS011;10677;50.942;4.028;2023-04-22T11:53:16;25.85;;;17.98;;
21036;SDS011;10677;50.942;4.028;2023-04-22T11:55:49;22.85;;;16.40;;
21036;SDS011;10677;50.942;4.028;2023-04-22T11:58:25;23.40;;;16.38;;
21036;SDS011;10677;50.942;4.028;2023-04-22T12:00:52;20.95;;;15.23;;
21036;SDS011;10677;50.942;4.028;2023-04-22T12:05:57;23.63;;;16.92;;
21036;SDS011;10677;50.942;4.028;2023-04-22T12:08:25;21.13;;;15.10;;
21036;SDS011;10677;50.942;4.028;2023-04-22T12:10:56;22.35;;;16.13;;
21036;SDS011;10677;50.942;4.028;2023-04-22T12:13:25;21.58;;;15.75;;
21036;SDS011;10677;50.942;4.028;2023-04-22T12:18:35;22.60;;;15.70;;
21036;SDS011;10677;50.942;4.028;2023-04-22T12:23:28;24.50;;;16.75;;
21036;SDS011;10677;50.942;4.028;2023-04-22T12:25:55;23.88;;;16.80;;
21036;SDS011;10677;50.942;4.028;2023-04-22T12:28:21;23.67;;;16.75;;
21036;SDS011;10677;50.942;4.028;2023-04-22T12:30:47;23.08;;;16.20;;
21036;SDS011;10677;50.942;4.028;2023-04-22T12:33:13;21.55;;;16.33;;
21036;SDS011;10677;50.942;4.028;2023-04-22T12:35:39;23.67;;;16.58;;
21036;SDS011;10677;50.942;4.028;2023-04-22T12:38:05;23.83;;;16.55;;
21036;SDS011;10677;50.942;4.028;2023-04-22T12:40:30;21.20;;;15.32;;
21036;SDS011;10677;50.942;4.028;2023-04-22T12:42:56;22.63;;;14.93;;
21036;SDS011;10677;50.942;4.028;2023-04-22T12:45:22;20.98;;;15.50;;
21036;SDS011;10677;50.942;4.028;2023-04-22T12:47:49;23.15;;;16.00;;
21036;SDS011;10677;50.942;4.028;2023-04-22T12:50:17;18.90;;;14.23;;
21036;SDS011;10677;50.942;4.028;2023-04-22T12:52:43;21.23;;;15.13;;
21036;SDS011;10677;50.942;4.028;2023-04-22T12:55:09;20.23;;;15.13;;
21036;SDS011;10677;50.942;4.028;2023-04-22T12:57:34;21.05;;;13.98;;
21036;SDS011;10677;50.942;4.028;2023-04-22T13:00:00;20.20;;;14.40;;
21036;SDS011;10677;50.942;4.028;2023-04-22T13:02:26;21.40;;;15.32;;
21036;SDS011;10677;50.942;4.028;2023-04-22T13:04:52;19.92;;;15.02;;
21036;SDS011;10677;50.942;4.028;2023-04-22T13:07:17;22.00;;;14.85;;
21036;SDS011;10677;50.942;4.028;2023-04-22T13:09:43;20.25;;;14.30;;
21036;SDS011;10677;50.942;4.028;2023-04-22T13:12:09;19.60;;;14.13;;
21036;SDS011;10677;50.942;4.028;2023-04-22T13:14:35;17.83;;;13.50;;
21036;SDS011;10677;50.942;4.028;2023-04-22T13:17:00;18.67;;;13.57;;
21036;SDS011;10677;50.942;4.028;2023-04-22T13:19:28;20.05;;;13.40;;
21036;SDS011;10677;50.942;4.028;2023-04-22T13:21:54;17.58;;;13.68;;
21036;SDS011;10677;50.942;4.028;2023-04-22T13:24:20;19.40;;;13.68;;
21036;SDS011;10677;50.942;4.028;2023-04-22T13:26:46;20.38;;;14.82;;
21036;SDS011;10677;50.942;4.028;2023-04-22T13:29:12;19.35;;;14.35;;
21036;SDS011;10677;50.942;4.028;2023-04-22T13:31:38;18.45;;;13.35;;
21036;SDS011;10677;50.942;4.028;2023-04-22T13:34:10;19.30;;;13.98;;
21036;SDS011;10677;50.942;4.028;2023-04-22T13:36:36;18.80;;;13.82;;
21036;SDS011;10677;50.942;4.028;2023-04-22T13:39:03;23.13;;;14.88;;
21036;SDS011;10677;50.942;4.028;2023-04-22T13:41:30;20.15;;;14.18;;
21036;SDS011;10677;50.942;4.028;2023-04-22T13:43:56;20.00;;;14.15;;
21036;SDS011;10677;50.942;4.028;2023-04-22T13:46:23;18.52;;;13.30;;
21036;SDS011;10677;50.942;4.028;2023-04-22T13:48:49;24.15;;;15.10;;
21036;SDS011;10677;50.942;4.028;2023-04-22T13:51:15;21.00;;;14.57;;
21036;SDS011;10677;50.942;4.028;2023-04-22T13:53:40;17.65;;;13.40;;
21036;SDS011;10677;50.942;4.028;2023-04-22T13:56:06;23.63;;;15.43;;
21036;SDS011;10677;50.942;4.028;2023-04-22T13:58:32;20.73;;;15.90;;
21036;SDS011;10677;50.942;4.028;2023-04-22T14:00:57;21.77;;;15.75;;
21036;SDS011;10677;50.942;4.028;2023-04-22T14:03:23;26.42;;;17.13;;
21036;SDS011;10677;50.942;4.028;2023-04-22T14:05:49;25.30;;;17.05;;
21036;SDS011;10677;50.942;4.028;2023-04-22T14:08:16;25.40;;;17.83;;
21036;SDS011;10677;50.942;4.028;2023-04-22T14:10:42;27.85;;;18.80;;
21036;SDS011;10677;50.942;4.028;2023-04-22T14:13:07;25.48;;;16.75;;
21036;SDS011;10677;50.942;4.028;2023-04-22T14:15:33;26.08;;;18.17;;
21036;SDS011;10677;50.942;4.028;2023-04-22T14:17:59;25.17;;;17.20;;
21036;SDS011;10677;50.942;4.028;2023-04-22T14:20:24;27.23;;;16.92;;
21036;SDS011;10677;50.942;4.028;2023-04-22T14:22:50;25.63;;;17.98;;
21036;SDS011;10677;50.942;4.028;2023-04-22T14:25:16;26.02;;;17.92;;
21036;SDS011;10677;50.942;4.028;2023-04-22T14:27:42;28.63;;;18.00;;
21036;SDS011;10677;50.942;4.028;2023-04-22T14:30:08;25.70;;;16.88;;